Time;durP1;ratioP1;P1;durP2;ratioP2;P2;SDS_P1;SDS_P2;PMS_P1;PMS_P2;Temp;Humidity;BMP_temperature;BMP_pressure;BME280_temperature;BME280_humidity;BME280_pressure;Samples;Min_cycle;Max_cycle;Signal;HPM_P1;HPM_P2
2023/06/28 00:01:17;;;;;;;4.10;1.90;;;14.40;99.90;;;;;;5057642;28;20730;-81
2023/06/28 00:03:44;;;;;;;3.33;1.73;;;14.30;99.90;;;;;;5074308;28;20291;-81
2023/06/28 00:06:11;;;;;;;4.10;1.80;;;14.40;99.90;;;;;;5074257;28;20312;-82
2023/06/28 00:08:40;;;;;;;5.00;2.10;;;14.40;99.90;;;;;;5057746;28;20193;-81
2023/06/28 00:11:09;;;;;;;3.40;1.70;;;14.30;99.90;;;;;;5092620;28;20300;-81
2023/06/28 00:13:37;;;;;;;4.97;2.00;;;14.10;99.90;;;;;;5074155;28;20231;-81
2023/06/28 00:16:04;;;;;;;7.13;2.10;;;14.20;99.90;;;;;;5092272;28;20213;-81
2023/06/28 00:18:32;;;;;;;5.33;1.80;;;14.10;99.90;;;;;;5074243;28;20198;-82
2023/06/28 00:21:01;;;;;;;7.23;2.30;;;14.10;99.90;;;;;;5074058;28;20225;-82
2023/06/28 00:23:28;;;;;;;4.57;1.77;;;13.90;99.90;;;;;;5074576;28;20217;-83
2023/06/28 00:25:55;;;;;;;5.10;1.93;;;13.90;99.90;;;;;;5074368;28;20217;-81
2023/06/28 00:28:22;;;;;;;4.40;2.00;;;13.90;99.90;;;;;;5074659;28;20631;-83
2023/06/28 00:30:49;;;;;;;5.93;2.00;;;13.90;99.90;;;;;;5057405;28;20758;-82
2023/06/28 00:33:19;;;;;;;4.20;2.03;;;13.80;99.90;;;;;;5094756;28;20209;-83
2023/06/28 00:35:48;;;;;;;4.00;2.10;;;13.80;99.90;;;;;;5078291;28;20628;-83
2023/06/28 00:38:15;;;;;;;7.57;2.33;;;13.80;99.90;;;;;;5061326;28;20201;-83
2023/06/28 00:40:42;;;;;;;6.70;2.10;;;13.80;99.90;;;;;;5077782;28;20220;-83
2023/06/28 00:43:09;;;;;;;8.70;2.60;;;13.80;99.90;;;;;;5061371;28;20334;-83
2023/06/28 00:45:36;;;;;;;6.13;2.40;;;13.70;99.90;;;;;;5096549;28;20213;-83
2023/06/28 00:48:04;;;;;;;4.93;2.10;;;13.60;99.90;;;;;;5057911;28;20593;-83
2023/06/28 00:50:31;;;;;;;3.10;2.23;;;13.60;99.90;;;;;;5074222;28;20222;-83
2023/06/28 00:52:59;;;;;;;6.47;2.70;;;13.70;99.90;;;;;;5074186;28;20733;-83
2023/06/28 00:55:26;;;;;;;5.87;2.43;;;13.60;99.90;;;;;;5057574;28;20272;-83
2023/06/28 00:57:53;;;;;;;5.10;2.50;;;13.70;99.90;;;;;;5074130;28;20209;-83
2023/06/28 01:00:21;;;;;;;5.23;2.50;;;13.50;99.90;;;;;;5074063;28;20238;-83
2023/06/28 01:02:48;;;;;;;5.87;2.87;;;13.40;99.90;;;;;;5073968;28;20194;-83
2023/06/28 01:05:16;;;;;;;7.23;2.67;;;13.30;99.90;;;;;;5073959;28;20241;-83
2023/06/28 01:07:45;;;;;;;5.37;2.70;;;13.40;99.90;;;;;;5074022;28;20214;-83
2023/06/28 01:10:13;;;;;;;4.70;2.50;;;13.40;99.90;;;;;;5073911;28;20253;-83
2023/06/28 01:12:40;;;;;;;5.63;3.00;;;13.30;99.90;;;;;;5074094;28;20598;-83
2023/06/28 01:15:08;;;;;;;4.13;2.70;;;13.30;99.90;;;;;;5073808;28;20292;-81
2023/06/28 01:17:35;;;;;;;6.47;2.70;;;13.30;99.90;;;;;;5057776;28;20244;-80
2023/06/28 01:20:03;;;;;;;4.23;2.70;;;13.40;99.90;;;;;;5057303;28;20230;-81
2023/06/28 01:22:33;;;;;;;6.73;2.73;;;13.30;99.90;;;;;;5074012;28;20190;-81
2023/06/28 01:25:00;;;;;;;8.97;3.10;;;13.30;99.90;;;;;;5074142;28;20312;-81
2023/06/28 01:27:28;;;;;;;5.10;2.77;;;13.20;99.90;;;;;;5073771;28;20285;-81
2023/06/28 01:29:56;;;;;;;5.80;2.70;;;13.20;99.90;;;;;;5073715;28;20206;-81
2023/06/28 01:32:24;;;;;;;7.50;3.33;;;13.20;99.90;;;;;;5073660;28;20198;-81
2023/06/28 01:34:51;;;;;;;5.70;2.70;;;13.10;99.90;;;;;;5056804;28;20226;-80
2023/06/28 01:37:20;;;;;;;5.13;2.90;;;13.20;99.90;;;;;;5073589;28;20243;-81
2023/06/28 01:39:48;;;;;;;4.77;2.90;;;13.10;99.90;;;;;;5056717;28;20606;-81
2023/06/28 01:42:15;;;;;;;4.13;2.70;;;13.10;99.90;;;;;;5073626;28;20229;-81
2023/06/28 01:44:42;;;;;;;10.63;3.07;;;13.10;99.90;;;;;;5072314;28;20205;-81
2023/06/28 01:47:09;;;;;;;5.67;3.07;;;13.00;99.90;;;;;;5073177;28;20249;-81
2023/06/28 01:49:38;;;;;;;4.37;3.03;;;12.90;99.90;;;;;;5073359;28;20239;-81
2023/06/28 01:52:05;;;;;;;6.03;3.07;;;12.90;99.90;;;;;;5073101;28;20214;-81
2023/06/28 01:54:33;;;;;;;6.57;3.00;;;12.80;99.90;;;;;;5073080;28;20766;-80
2023/06/28 01:57:00;;;;;;;6.20;3.07;;;12.90;99.90;;;;;;5072862;28;20694;-80
2023/06/28 01:59:27;;;;;;;4.63;2.80;;;12.80;99.90;;;;;;5074365;28;20183;-80
2023/06/28 02:01:54;;;;;;;4.67;2.83;;;12.80;99.90;;;;;;5073202;28;20275;-81
2023/06/28 02:04:21;;;;;;;4.87;3.00;;;12.80;99.90;;;;;;5056275;28;20654;-81
2023/06/28 02:06:47;;;;;;;4.97;2.83;;;12.80;99.90;;;;;;5072965;28;20694;-81
2023/06/28 02:09:14;;;;;;;6.37;2.90;;;12.80;99.90;;;;;;5056602;28;20207;-81
2023/06/28 02:11:41;;;;;;;4.80;2.90;;;12.80;99.90;;;;;;5074149;28;20214;-81
2023/06/28 02:14:08;;;;;;;6.70;2.87;;;12.80;99.90;;;;;;5073981;28;20635;-81
2023/06/28 02:16:35;;;;;;;7.40;2.73;;;12.80;99.90;;;;;;5074160;28;20225;-81
2023/06/28 02:19:03;;;;;;;4.47;2.73;;;12.80;99.90;;;;;;5074049;28;20308;-81
2023/06/28 02:21:29;;;;;;;8.63;3.30;;;12.70;99.90;;;;;;5072685;28;20198;-81
2023/06/28 02:23:56;;;;;;;5.80;3.00;;;12.70;99.90;;;;;;5074005;28;20182;-81
2023/06/28 02:26:23;;;;;;;6.70;3.00;;;12.70;99.90;;;;;;5073756;28;20217;-81
2023/06/28 02:28:50;;;;;;;5.43;2.70;;;12.60;99.90;;;;;;5073848;28;20786;-81
2023/06/28 02:31:17;;;;;;;4.47;2.80;;;12.60;99.90;;;;;;5055842;28;20750;-82
2023/06/28 02:33:44;;;;;;;4.20;2.73;;;12.70;99.90;;;;;;5055712;28;20222;-80
2023/06/28 02:36:12;;;;;;;6.17;2.67;;;12.60;99.90;;;;;;5072274;28;20217;-83
2023/06/28 02:38:39;;;;;;;7.50;2.70;;;12.60;99.90;;;;;;5072343;28;20275;-81
2023/06/28 02:41:06;;;;;;;4.90;3.00;;;12.70;99.90;;;;;;5073418;28;20252;-81
2023/06/28 02:43:32;;;;;;;4.03;2.70;;;12.60;99.90;;;;;;5073463;28;20218;-81
2023/06/28 02:45:59;;;;;;;6.17;2.70;;;12.70;99.90;;;;;;5071960;28;20252;-81
2023/06/28 02:48:26;;;;;;;4.60;2.47;;;12.70;99.90;;;;;;5092418;28;20312;-80
2023/06/28 02:50:53;;;;;;;4.73;2.70;;;12.60;99.90;;;;;;5075199;28;20268;-81
2023/06/28 02:53:21;;;;;;;6.37;2.80;;;12.60;99.90;;;;;;5058458;28;20300;-82
2023/06/28 02:55:48;;;;;;;6.10;2.73;;;12.60;99.90;;;;;;5074297;28;20225;-81
2023/06/28 02:58:15;;;;;;;4.23;2.57;;;12.60;99.90;;;;;;5075409;28;20247;-82
2023/06/28 03:00:44;;;;;;;5.23;2.60;;;12.60;99.90;;;;;;5075290;28;20242;-82
2023/06/28 03:03:13;;;;;;;3.73;2.87;;;12.50;99.90;;;;;;5075306;28;20684;-82
2023/06/28 03:05:40;;;;;;;5.07;2.83;;;12.60;99.90;;;;;;5093711;28;20217;-82
2023/06/28 03:08:07;;;;;;;4.30;2.70;;;12.50;99.90;;;;;;5075243;28;20242;-82
2023/06/28 03:10:34;;;;;;;6.47;2.77;;;12.50;99.90;;;;;;5075384;28;20300;-80
2023/06/28 03:13:00;;;;;;;5.30;2.77;;;12.60;99.90;;;;;;5093505;28;20193;-80
2023/06/28 03:15:27;;;;;;;5.60;3.00;;;12.60;99.90;;;;;;5075283;28;20452;-79
2023/06/28 03:17:54;;;;;;;4.43;3.20;;;12.60;99.90;;;;;;5075169;28;20274;-80
2023/06/28 03:20:22;;;;;;;5.63;3.03;;;12.60;99.90;;;;;;5058790;28;20216;-79
2023/06/28 03:22:49;;;;;;;6.63;2.80;;;12.60;99.90;;;;;;5058536;28;20211;-81
2023/06/28 03:25:16;;;;;;;5.93;2.97;;;12.60;99.90;;;;;;5075021;28;20219;-80
2023/06/28 03:27:45;;;;;;;4.80;2.80;;;12.70;99.90;;;;;;5074949;28;20197;-81
2023/06/28 03:30:13;;;;;;;5.27;3.07;;;12.70;99.90;;;;;;5074936;28;20397;-81
2023/06/28 03:32:39;;;;;;;4.90;2.80;;;12.80;99.90;;;;;;5075188;28;20225;-82
2023/06/28 03:35:07;;;;;;;5.67;3.20;;;12.70;99.90;;;;;;5074647;28;20221;-81
2023/06/28 03:37:34;;;;;;;6.40;3.23;;;12.80;99.90;;;;;;5058163;28;20216;-81
2023/06/28 03:40:01;;;;;;;4.20;2.90;;;12.90;99.90;;;;;;5058042;28;20221;-80
2023/06/28 03:42:28;;;;;;;5.30;3.00;;;12.90;99.90;;;;;;5092939;28;20217;-81
2023/06/28 03:44:55;;;;;;;7.47;3.17;;;12.80;99.90;;;;;;5074473;28;20284;-81
2023/06/28 03:47:22;;;;;;;7.30;3.30;;;12.90;99.90;;;;;;5074751;28;20578;-80
2023/06/28 03:49:49;;;;;;;6.07;3.30;;;12.90;99.90;;;;;;5074857;28;20288;-81
2023/06/28 03:52:16;;;;;;;6.13;3.27;;;13.00;99.90;;;;;;5074587;28;20677;-82
2023/06/28 03:54:43;;;;;;;5.73;3.40;;;13.00;99.90;;;;;;5074495;28;20245;-81
2023/06/28 03:57:10;;;;;;;4.07;2.93;;;13.10;99.90;;;;;;5092776;28;20173;-81
2023/06/28 03:59:37;;;;;;;7.13;3.33;;;13.00;99.90;;;;;;5057976;28;20246;-81
2023/06/28 04:02:04;;;;;;;6.47;3.00;;;13.10;99.90;;;;;;5074472;28;20267;-81
2023/06/28 04:04:33;;;;;;;5.67;3.40;;;13.10;99.90;;;;;;5057957;28;20551;-81
2023/06/28 04:07:02;;;;;;;5.47;3.30;;;13.20;99.90;;;;;;5057630;28;20704;-81
2023/06/28 04:09:29;;;;;;;4.10;3.40;;;13.30;99.90;;;;;;5074232;28;20194;-81
2023/06/28 04:11:56;;;;;;;6.40;3.13;;;13.30;99.90;;;;;;5074425;28;20700;-81
2023/06/28 04:14:24;;;;;;;3.57;2.93;;;13.40;99.90;;;;;;5074598;28;20607;-80
2023/06/28 04:16:52;;;;;;;5.73;3.13;;;13.40;99.90;;;;;;5074121;28;20213;-81
2023/06/28 04:19:19;;;;;;;6.53;3.10;;;13.50;99.90;;;;;;5057740;28;20232;-81
2023/06/28 04:21:47;;;;;;;7.10;3.37;;;13.60;99.90;;;;;;5074257;28;20232;-81
2023/06/28 04:24:14;;;;;;;5.40;3.00;;;13.70;99.90;;;;;;5074539;28;20203;-81
2023/06/28 04:26:41;;;;;;;6.20;3.17;;;13.70;99.90;;;;;;5074279;28;20217;-80
2023/06/28 04:29:08;;;;;;;3.03;2.73;;;13.60;99.90;;;;;;5092235;28;20607;-81
2023/06/28 04:31:35;;;;;;;5.83;3.20;;;13.70;99.90;;;;;;5073980;28;20262;-81
2023/06/28 04:34:02;;;;;;;5.30;3.10;;;13.70;99.90;;;;;;5092089;28;20213;-81
2023/06/28 04:36:29;;;;;;;4.93;3.10;;;13.70;99.90;;;;;;5074341;28;20684;-81
2023/06/28 04:38:57;;;;;;;4.97;3.03;;;13.70;99.90;;;;;;5074344;28;20197;-81
2023/06/28 04:41:27;;;;;;;4.17;2.83;;;13.80;99.90;;;;;;5073806;28;20270;-82
2023/06/28 04:43:56;;;;;;;4.80;3.17;;;13.80;99.90;;;;;;5074258;28;20189;-81
2023/06/28 04:46:27;;;;;;;4.90;3.13;;;13.80;99.90;;;;;;5073900;28;20711;-81
2023/06/28 04:48:55;;;;;;;6.73;2.90;;;14.00;99.90;;;;;;5074106;28;20240;-81
2023/06/28 04:51:22;;;;;;;7.13;2.70;;;14.10;99.90;;;;;;5092153;28;20213;-82
2023/06/28 04:53:50;;;;;;;4.77;2.93;;;14.10;99.90;;;;;;5073762;28;20245;-82
2023/06/28 04:56:17;;;;;;;4.57;2.50;;;14.20;99.90;;;;;;5092173;28;20293;-82
2023/06/28 04:58:44;;;;;;;7.73;2.70;;;14.20;99.90;;;;;;5073885;28;20223;-81
2023/06/28 05:01:11;;;;;;;4.83;3.20;;;14.30;99.90;;;;;;5091885;28;20207;-82
2023/06/28 05:03:38;;;;;;;3.67;2.63;;;14.30;99.90;;;;;;5073667;28;20288;-81
2023/06/28 05:06:06;;;;;;;7.47;3.30;;;14.40;99.90;;;;;;5091685;28;20263;-82
2023/06/28 05:08:34;;;;;;;6.87;2.87;;;14.40;99.90;;;;;;5073678;28;20198;-82
2023/06/28 05:11:02;;;;;;;5.93;2.87;;;14.50;99.90;;;;;;5073709;28;20301;-82
2023/06/28 05:13:29;;;;;;;4.67;2.83;;;14.60;99.90;;;;;;5091519;28;20186;-82
2023/06/28 05:15:56;;;;;;;4.10;2.70;;;14.70;99.90;;;;;;5073608;28;20212;-82
2023/06/28 05:18:23;;;;;;;6.07;2.60;;;14.80;99.90;;;;;;5073585;28;20189;-82
2023/06/28 05:20:50;;;;;;;6.43;2.70;;;14.80;99.90;;;;;;5094826;28;20258;-83
2023/06/28 05:23:22;;;;;;;4.10;2.90;;;15.00;99.90;;;;;;5095163;28;20268;-82
2023/06/28 05:25:49;;;;;;;4.30;2.57;;;15.00;99.90;;;;;;5095177;28;20220;-82
2023/06/28 05:28:16;;;;;;;4.77;2.40;;;14.90;99.90;;;;;;5095015;28;20680;-81
2023/06/28 05:30:43;;;;;;;4.10;2.50;;;15.00;99.90;;;;;;5076828;28;20244;-83
2023/06/28 05:33:11;;;;;;;5.00;2.83;;;15.00;99.90;;;;;;5077801;28;20645;-82
2023/06/28 05:35:38;;;;;;;5.17;2.90;;;14.90;99.90;;;;;;5076895;28;20316;-82
2023/06/28 05:38:06;;;;;;;5.53;2.70;;;14.90;99.90;;;;;;5095053;28;20201;-82
2023/06/28 05:40:34;;;;;;;5.20;2.73;;;14.90;99.90;;;;;;5094854;28;20209;-82
2023/06/28 05:43:01;;;;;;;4.37;2.43;;;15.00;99.90;;;;;;5060067;28;20665;-82
2023/06/28 05:45:29;;;;;;;3.50;2.50;;;15.20;99.90;;;;;;5094589;28;20700;-82
2023/06/28 05:47:57;;;;;;;4.20;2.47;;;15.20;99.90;;;;;;5094733;28;20355;-83
2023/06/28 05:50:25;;;;;;;4.37;2.70;;;15.30;99.90;;;;;;5076702;28;20217;-82
2023/06/28 05:52:52;;;;;;;4.60;2.60;;;15.30;99.90;;;;;;5076643;28;20255;-80
2023/06/28 05:55:19;;;;;;;6.60;2.60;;;15.40;99.90;;;;;;5076429;28;20220;-79
2023/06/28 05:57:46;;;;;;;6.00;2.63;;;15.50;99.90;;;;;;5076429;28;20186;-79
2023/06/28 06:00:13;;;;;;;4.83;2.90;;;15.40;99.90;;;;;;5059576;28;20266;-82
2023/06/28 06:02:40;;;;;;;6.17;2.67;;;15.50;99.90;;;;;;5076484;28;20390;-81
2023/06/28 06:05:08;;;;;;;4.17;2.30;;;15.50;99.90;;;;;;5076314;28;20213;-82
2023/06/28 06:07:39;;;;;;;4.50;2.30;;;15.60;99.90;;;;;;5059859;28;20231;-82
2023/06/28 06:10:09;;;;;;;7.40;2.57;;;15.70;99.90;;;;;;5076418;28;20308;-82
2023/06/28 06:12:36;;;;;;;6.57;2.60;;;15.70;99.90;;;;;;5076654;28;20280;-81
2023/06/28 06:15:05;;;;;;;7.23;2.47;;;15.80;99.90;;;;;;5075924;28;20696;-81
2023/06/28 06:17:32;;;;;;;3.70;2.43;;;15.90;99.90;;;;;;5075894;28;20194;-80
2023/06/28 06:20:00;;;;;;;4.50;2.63;;;15.90;99.90;;;;;;5076138;28;20194;-82
2023/06/28 06:22:28;;;;;;;5.30;2.70;;;15.90;99.90;;;;;;5075765;28;20190;-79
2023/06/28 06:24:55;;;;;;;3.70;2.27;;;16.00;99.90;;;;;;5093654;28;20216;-80
2023/06/28 06:27:22;;;;;;;4.70;2.53;;;16.10;99.90;;;;;;5093830;28;20263;-79
2023/06/28 06:29:49;;;;;;;4.67;2.50;;;16.20;99.90;;;;;;5058757;28;20192;-79
2023/06/28 06:32:16;;;;;;;8.20;2.43;;;16.10;99.90;;;;;;5094019;28;20185;-81
2023/06/28 06:34:44;;;;;;;4.10;2.40;;;16.20;99.90;;;;;;5093705;28;20282;-78
2023/06/28 06:37:12;;;;;;;5.63;2.43;;;16.20;99.90;;;;;;5076112;28;20197;-81
2023/06/28 06:39:40;;;;;;;4.43;2.27;;;16.30;99.90;;;;;;5076392;28;20269;-82
2023/06/28 06:42:07;;;;;;;6.33;2.60;;;16.40;99.90;;;;;;5058978;28;20197;-82
2023/06/28 06:44:34;;;;;;;4.70;1.97;;;16.50;99.90;;;;;;5093899;28;20281;-81
2023/06/28 06:47:03;;;;;;;4.97;2.17;;;16.70;99.90;;;;;;5058619;28;20869;-81
2023/06/28 06:49:30;;;;;;;5.00;2.30;;;16.70;99.90;;;;;;5075462;28;20243;-80
2023/06/28 06:51:58;;;;;;;3.87;2.10;;;16.60;99.90;;;;;;5075514;28;20214;-82
2023/06/28 06:54:29;;;;;;;4.90;2.43;;;16.70;99.90;;;;;;5093554;28;20206;-82
2023/06/28 06:56:58;;;;;;;6.03;2.40;;;16.70;99.90;;;;;;5075460;28;20208;-81
2023/06/28 06:59:26;;;;;;;4.57;2.27;;;16.60;99.90;;;;;;5075627;28;20201;-84
2023/06/28 07:01:56;;;;;;;5.97;2.40;;;16.60;99.90;;;;;;5076074;28;20307;-87
2023/06/28 07:04:24;;;;;;;4.30;2.50;;;16.70;99.90;;;;;;5058993;28;20197;-81
2023/06/28 07:06:51;;;;;;;5.07;2.30;;;16.80;99.90;;;;;;5093567;28;20216;-83
2023/06/28 07:09:18;;;;;;;5.80;2.50;;;16.80;99.90;;;;;;5093445;28;20196;-81
2023/06/28 07:11:46;;;;;;;3.83;2.00;;;16.90;99.90;;;;;;5075290;28;20266;-81
2023/06/28 07:14:14;;;;;;;5.80;2.47;;;17.00;99.90;;;;;;5075184;28;20677;-80
2023/06/28 07:16:44;;;;;;;3.73;2.13;;;17.20;99.90;;;;;;5093159;28;20589;-80
2023/06/28 07:19:12;;;;;;;8.97;2.50;;;17.10;99.90;;;;;;5059346;28;20706;-85
2023/06/28 07:21:42;;;;;;;2.43;1.80;;;17.20;99.90;;;;;;5075951;28;20214;-86
2023/06/28 07:24:09;;;;;;;4.87;2.30;;;17.30;99.90;;;;;;5076689;28;20227;-86
2023/06/28 07:26:36;;;;;;;5.53;2.07;;;17.20;99.90;;;;;;5075316;28;20218;-86
2023/06/28 07:29:03;;;;;;;4.00;1.70;;;17.30;99.90;;;;;;5074888;28;20284;-85
2023/06/28 07:31:30;;;;;;;3.30;1.90;;;17.40;99.90;;;;;;5058791;28;20243;-83
2023/06/28 07:33:57;;;;;;;3.47;1.77;;;17.50;99.90;;;;;;5074502;28;20193;-77
2023/06/28 07:36:25;;;;;;;3.77;1.90;;;17.50;99.90;;;;;;5074549;28;20221;-82
2023/06/28 07:38:52;;;;;;;4.33;1.70;;;17.60;99.90;;;;;;5057935;28;20197;-81
2023/06/28 07:41:19;;;;;;;4.20;1.87;;;17.60;99.90;;;;;;5073976;28;20217;-82
2023/06/28 07:43:46;;;;;;;4.07;2.27;;;17.90;99.90;;;;;;5073825;28;20193;-83
2023/06/28 07:46:12;;;;;;;4.60;2.07;;;18.00;99.90;;;;;;5074028;28;20245;-82
2023/06/28 07:48:40;;;;;;;4.90;1.80;;;18.10;99.90;;;;;;5057783;28;20205;-83
2023/06/28 07:51:07;;;;;;;3.63;1.90;;;18.10;99.90;;;;;;5074279;28;20270;-82
2023/06/28 07:53:33;;;;;;;6.30;1.83;;;18.30;99.90;;;;;;5074325;28;20223;-83
2023/06/28 07:56:01;;;;;;;4.73;1.60;;;18.40;99.90;;;;;;5057228;28;20221;-81
2023/06/28 07:58:28;;;;;;;8.40;2.47;;;18.50;99.90;;;;;;5074142;28;20203;-82
2023/06/28 08:00:55;;;;;;;6.70;1.90;;;18.60;99.90;;;;;;5092094;28;20205;-82
2023/06/28 08:03:22;;;;;;;4.73;1.70;;;18.50;99.90;;;;;;5057587;28;20197;-84
2023/06/28 08:05:49;;;;;;;7.33;1.77;;;18.60;99.90;;;;;;5057473;28;20212;-84
2023/06/28 08:08:16;;;;;;;4.10;1.73;;;18.90;99.90;;;;;;5057658;28;20193;-84
2023/06/28 08:10:43;;;;;;;6.50;1.83;;;18.90;99.90;;;;;;5057529;28;20249;-82
2023/06/28 08:13:10;;;;;;;3.40;1.90;;;18.90;99.90;;;;;;5057462;28;20232;-83
2023/06/28 08:15:38;;;;;;;5.40;1.93;;;18.80;99.90;;;;;;5074095;28;20256;-84
2023/06/28 08:18:09;;;;;;;5.57;1.90;;;19.00;99.90;;;;;;5092461;28;20178;-83
2023/06/28 08:20:37;;;;;;;4.07;1.63;;;19.10;99.90;;;;;;5092217;28;20301;-87
2023/06/28 08:23:07;;;;;;;4.93;1.80;;;18.90;99.90;;;;;;5074139;28;20652;-88
2023/06/28 08:25:34;;;;;;;5.83;1.60;;;19.10;99.90;;;;;;5074262;28;20287;-84
2023/06/28 08:28:01;;;;;;;6.67;1.97;;;19.30;99.90;;;;;;5074377;28;20718;-83
2023/06/28 08:30:28;;;;;;;4.63;1.80;;;19.80;99.90;;;;;;5092447;28;20213;-82
2023/06/28 08:32:55;;;;;;;4.03;1.70;;;20.20;99.90;;;;;;5073845;28;20395;-84
2023/06/28 08:35:22;;;;;;;3.87;1.60;;;20.30;99.90;;;;;;5073686;28;20232;-83
2023/06/28 08:37:49;;;;;;;4.47;1.60;;;19.80;99.90;;;;;;5073884;28;20193;-85
2023/06/28 08:40:16;;;;;;;6.73;2.00;;;19.50;99.90;;;;;;5057161;28;20214;-86
2023/06/28 08:42:46;;;;;;;3.97;1.80;;;19.50;99.90;;;;;;5073691;28;20239;-84
2023/06/28 08:45:14;;;;;;;4.67;1.90;;;19.40;99.90;;;;;;5073583;28;20312;-84
2023/06/28 08:47:41;;;;;;;4.57;1.50;;;19.80;99.90;;;;;;5091856;28;20256;-85
2023/06/28 08:50:11;;;;;;;6.93;1.70;;;20.30;99.90;;;;;;5073737;28;20213;-86
2023/06/28 08:52:40;;;;;;;3.60;1.40;;;20.60;99.90;;;;;;5073864;28;20310;-82
2023/06/28 08:55:07;;;;;;;3.70;1.60;;;20.40;99.90;;;;;;5060927;28;20257;-85
2023/06/28 08:57:36;;;;;;;4.63;1.40;;;20.40;99.90;;;;;;5077827;28;20197;-83
2023/06/28 09:00:06;;;;;;;5.87;1.83;;;21.10;99.90;;;;;;5077266;28;20571;-83
2023/06/28 09:02:34;;;;;;;4.40;1.53;;;21.40;99.90;;;;;;5077285;28;20194;-83
2023/06/28 09:05:02;;;;;;;5.23;1.60;;;21.50;99.90;;;;;;5077857;28;20320;-84
2023/06/28 09:07:33;;;;;;;4.50;1.60;;;20.90;99.90;;;;;;5095564;28;20239;-86
2023/06/28 09:10:01;;;;;;;3.63;1.50;;;20.80;99.90;;;;;;5077396;28;20283;-86
2023/06/28 09:12:28;;;;;;;6.87;1.90;;;20.60;99.90;;;;;;5095479;28;20620;-86
2023/06/28 09:14:55;;;;;;;4.40;1.77;;;20.60;99.90;;;;;;5095268;28;20299;-86
2023/06/28 09:17:22;;;;;;;3.13;1.50;;;21.40;99.90;;;;;;5077167;28;20201;-87
2023/06/28 09:19:50;;;;;;;5.40;1.77;;;21.70;99.90;;;;;;5077113;28;20239;-88
2023/06/28 09:22:17;;;;;;;4.73;1.93;;;21.70;99.90;;;;;;5076913;28;20342;-88
2023/06/28 09:24:48;;;;;;;6.00;1.77;;;21.20;99.90;;;;;;5095873;28;20239;-87
2023/06/28 09:27:16;;;;;;;4.07;1.80;;;21.40;99.90;;;;;;5096662;28;20174;-89
2023/06/28 09:29:42;;;;;;;4.47;1.53;;;21.50;99.90;;;;;;5079058;28;20209;-87
2023/06/28 09:32:10;;;;;;;4.50;1.47;;;21.40;99.90;;;;;;5095941;28;20277;-87
2023/06/28 09:34:37;;;;;;;5.77;1.70;;;21.20;99.90;;;;;;5076955;28;20194;-89
2023/06/28 09:37:06;;;;;;;6.53;1.73;;;21.00;99.90;;;;;;5060205;28;20309;-89
2023/06/28 09:39:38;;;;;;;4.00;1.57;;;20.80;99.90;;;;;;5076971;28;20221;-84
2023/06/28 09:42:08;;;;;;;8.70;1.90;;;20.90;99.90;;;;;;5076441;28;20656;-85
2023/06/28 09:44:35;;;;;;;6.17;1.60;;;21.20;99.90;;;;;;5077052;28;20194;-85
2023/06/28 09:47:04;;;;;;;3.20;1.30;;;21.40;99.90;;;;;;5076395;28;20324;-83
2023/06/28 09:49:31;;;;;;;10.20;1.70;;;21.50;99.90;;;;;;5076442;28;20205;-86
2023/06/28 09:52:03;;;;;;;3.23;1.30;;;21.50;99.90;;;;;;5094374;28;20210;-81
2023/06/28 09:54:32;;;;;;;5.10;1.73;;;22.30;99.90;;;;;;5076508;28;20649;-83
2023/06/28 09:57:01;;;;;;;4.63;1.70;;;22.60;99.90;;;;;;5076292;28;20213;-83
2023/06/28 09:59:32;;;;;;;4.30;1.30;;;22.50;99.90;;;;;;5076274;28;20205;-83
2023/06/28 10:02:07;;;;;;;3.53;1.27;;;23.10;99.90;;;;;;5076367;28;20209;-83
2023/06/28 10:04:36;;;;;;;3.93;1.50;;;23.20;99.90;;;;;;5076015;28;20204;-82
2023/06/28 10:07:05;;;;;;;3.63;1.30;;;22.70;99.90;;;;;;5076032;28;20217;-84
2023/06/28 10:09:42;;;;;;;4.75;1.63;;;21.90;99.90;;;;;;5076164;28;20198;-85
2023/06/28 10:12:13;;;;;;;5.20;1.40;;;21.70;99.90;;;;;;5060118;28;20197;-84
2023/06/28 10:14:48;;;;;;;3.57;1.70;;;21.60;99.90;;;;;;5076064;28;20297;-82
2023/06/28 10:17:17;;;;;;;6.50;1.50;;;21.50;99.90;;;;;;5076320;28;20656;-84
2023/06/28 10:19:44;;;;;;;4.37;1.70;;;21.60;99.90;;;;;;5076262;28;20664;-83
2023/06/28 10:22:14;;;;;;;8.17;2.13;;;21.40;99.90;;;;;;5075882;28;20209;-83
2023/06/28 10:24:42;;;;;;;4.83;1.67;;;21.40;99.90;;;;;;5076361;28;20201;-81
2023/06/28 10:27:11;;;;;;;4.80;1.60;;;21.30;99.90;;;;;;5075961;28;20360;-86
2023/06/28 10:29:39;;;;;;;3.90;1.40;;;21.20;99.90;;;;;;5076230;28;20743;-85
2023/06/28 10:32:07;;;;;;;3.53;1.40;;;20.90;99.90;;;;;;5076231;28;20571;-85
2023/06/28 10:34:35;;;;;;;5.60;1.60;;;20.80;99.90;;;;;;5095177;28;20224;-86
2023/06/28 10:37:03;;;;;;;4.13;1.50;;;21.00;99.90;;;;;;5060131;28;20210;-83
2023/06/28 10:39:34;;;;;;;8.23;1.90;;;21.00;99.90;;;;;;5075981;28;20201;-85
2023/06/28 10:42:02;;;;;;;5.73;1.60;;;21.30;99.90;;;;;;5059102;28;20263;-85
2023/06/28 10:44:29;;;;;;;4.97;1.60;;;21.90;99.90;;;;;;5059211;28;20212;-84
2023/06/28 10:47:09;;;;;;;3.60;1.57;;;22.40;99.90;;;;;;5093343;28;20229;-85
2023/06/28 10:49:40;;;;;;;4.07;1.63;;;23.00;99.90;;;;;;5093567;28;20609;-85
2023/06/28 10:52:18;;;;;;;3.60;1.60;;;23.00;99.90;;;;;;5075329;28;20185;-86
2023/06/28 10:54:48;;;;;;;5.50;1.77;;;22.30;99.90;;;;;;5059545;28;20211;-83
2023/06/28 10:57:15;;;;;;;5.80;1.50;;;22.10;99.90;;;;;;5075435;28;20677;-85
2023/06/28 10:59:42;;;;;;;5.53;1.63;;;21.70;99.90;;;;;;5075152;28;20194;-86
2023/06/28 11:02:09;;;;;;;5.53;1.87;;;21.40;99.90;;;;;;5058986;28;20250;-85
2023/06/28 11:04:50;;;;;;;5.30;1.53;;;21.40;99.90;;;;;;5093563;28;20247;-83
2023/06/28 11:07:21;;;;;;;6.93;1.87;;;21.40;99.90;;;;;;5093336;28;20213;-86
2023/06/28 11:10:17;;;;;;;3.80;2.00;;;21.50;99.90;;;;;;5058359;28;20204;-78
2023/06/28 11:12:50;;;;;;;5.57;1.90;;;21.50;99.90;;;;;;5075231;28;20246;-77
2023/06/28 11:15:27;;;;;;;4.50;1.70;;;21.60;99.90;;;;;;5075212;28;20290;-79
2023/06/28 11:18:05;;;;;;;4.97;1.90;;;21.80;99.90;;;;;;5073978;28;20246;-78
2023/06/28 11:20:43;;;;;;;5.77;1.80;;;22.00;99.90;;;;;;5058477;28;20232;-89
2023/06/28 11:23:29;;;;;;;5.37;2.03;;;21.90;99.90;;;;;;5093245;28;20532;-87
2023/06/28 11:25:59;;;;;;;6.07;1.87;;;21.70;99.90;;;;;;5075396;28;20209;-85
2023/06/28 11:28:31;;;;;;;3.93;1.80;;;21.50;99.90;;;;;;5058178;28;20197;-84
2023/06/28 11:31:12;;;;;;;6.67;2.00;;;21.50;99.90;;;;;;5074928;28;20214;-89
2023/06/28 11:33:41;;;;;;;5.20;1.70;;;21.60;99.90;;;;;;5058558;28;20212;-81
2023/06/28 11:36:10;;;;;;;7.03;2.17;;;21.60;99.90;;;;;;5074773;28;20256;-81
2023/06/28 11:38:37;;;;;;;8.55;2.08;;;22.20;99.90;;;;;;5074948;28;20189;-83
2023/06/28 11:41:05;;;;;;;7.60;1.67;;;22.90;99.90;;;;;;5074910;28;20575;-83
2023/06/28 11:43:32;;;;;;;5.97;1.90;;;23.80;99.90;;;;;;5074770;28;20259;-82
2023/06/28 11:45:59;;;;;;;2.83;1.50;;;23.90;99.90;;;;;;5074607;28;20288;-81
2023/06/28 11:48:27;;;;;;;3.45;1.40;;;23.50;99.90;;;;;;5092861;28;20233;-80
2023/06/28 11:51:03;;;;;;;3.40;1.90;;;22.70;99.90;;;;;;5074372;28;20217;-79
2023/06/28 11:53:31;;;;;;;14.10;2.90;;;22.40;99.90;;;;;;5074703;28;20223;-86
2023/06/28 11:55:58;;;;;;;17.87;3.30;;;22.20;99.90;;;;;;5074873;28;20290;-85
2023/06/28 11:58:31;;;;;;;2.83;1.77;;;22.40;99.90;;;;;;5075068;28;20193;-87
2023/06/28 12:01:05;;;;;;;2.93;1.70;;;22.20;99.90;;;;;;5058082;28;20639;-86
2023/06/28 12:03:39;;;;;;;5.00;2.10;;;22.30;99.90;;;;;;5074501;28;20243;-86
2023/06/28 12:06:10;;;;;;;4.20;1.97;;;22.10;99.90;;;;;;5092571;28;20213;-86
2023/06/28 12:08:39;;;;;;;3.53;1.73;;;21.70;99.90;;;;;;5092420;28;20228;-86
2023/06/28 12:11:12;;;;;;;5.37;2.03;;;21.70;99.90;;;;;;5074328;28;20225;-86
2023/06/28 12:13:39;;;;;;;7.40;1.93;;;21.60;99.90;;;;;;5074181;28;20296;-86
2023/06/28 12:16:18;;;;;;;5.03;1.50;;;21.70;99.90;;;;;;5092184;28;20220;-86
2023/06/28 12:18:58;;;;;;;5.23;1.70;;;21.70;99.90;;;;;;5057363;28;20210;-87
2023/06/28 12:21:27;;;;;;;5.97;1.70;;;22.00;99.90;;;;;;5092370;28;20201;-86
2023/06/28 12:24:14;;;;;;;6.40;1.90;;;22.30;99.90;;;;;;5074229;28;20664;-86
2023/06/28 12:26:44;;;;;;;5.33;1.70;;;22.70;99.90;;;;;;5074459;28;20250;-86
2023/06/28 12:29:11;;;;;;;4.60;2.00;;;23.10;99.90;;;;;;5077051;28;20221;-86
2023/06/28 12:31:46;;;;;;;7.18;2.08;;;24.10;99.90;;;;;;5096423;28;20220;-85
2023/06/28 12:34:23;;;;;;;5.40;1.90;;;24.30;99.90;;;;;;5061783;28;20659;-86
2023/06/28 12:37:01;;;;;;;12.23;2.27;;;23.30;99.90;;;;;;5061107;28;20228;-88
2023/06/28 12:39:31;;;;;;;5.45;2.50;;;23.10;99.90;;;;;;5096201;28;20169;-87
2023/06/28 12:42:18;;;;;;;4.73;2.43;;;22.50;99.90;;;;;;5077854;28;20714;-87
2023/06/28 12:44:51;;;;;;;6.23;2.60;;;22.30;99.90;;;;;;5077929;28;20228;-85
2023/06/28 12:47:19;;;;;;;9.95;2.33;;;21.70;99.90;;;;;;5061382;28;20231;-84
2023/06/28 12:49:47;;;;;;;6.70;2.17;;;21.60;99.90;;;;;;5077857;28;20200;-84
2023/06/28 12:52:14;;;;;;;10.40;2.60;;;21.40;99.90;;;;;;5077689;28;20233;-82